createdAt,value
2023-05-18T00:01:34.122Z,41.55
2023-05-18T00:04:02.098Z,42.95
2023-05-18T00:06:29.381Z,48.38
2023-05-18T00:08:56.602Z,45.75
2023-05-18T00:11:23.794Z,52.83
2023-05-18T00:13:51.024Z,52.97
2023-05-18T00:16:18.178Z,43.80
2023-05-18T00:18:46.078Z,43.13
2023-05-18T00:21:16.087Z,48.63
2023-05-18T00:23:49.443Z,43.92
2023-05-18T00:26:16.611Z,40.20
2023-05-18T00:28:44.120Z,45.08
2023-05-18T00:31:11.654Z,55.75
2023-05-18T00:33:38.849Z,40.78
2023-05-18T00:36:06.528Z,40.05
2023-05-18T00:38:33.708Z,41.72
2023-05-18T00:41:00.900Z,44.90
2023-05-18T00:43:28.080Z,44.72
2023-05-18T00:45:55.455Z,56.38
2023-05-18T00:48:22.738Z,66.75
2023-05-18T00:50:50.174Z,50.88
2023-05-18T00:53:17.487Z,56.47
2023-05-18T00:55:44.717Z,59.72
2023-05-18T00:58:12.379Z,52.30
2023-05-18T01:00:40.702Z,47.95
2023-05-18T01:05:38.509Z,48.10
2023-05-18T01:08:06.042Z,59.08
2023-05-18T01:10:38.111Z,44.60
2023-05-18T01:13:24.584Z,64.07
2023-05-18T01:15:58.927Z,40.45
2023-05-18T01:18:36.540Z,42.90
2023-05-18T01:21:25.479Z,56.33
2023-05-18T01:24:31.784Z,40.88
2023-05-18T01:27:01.989Z,39.70
2023-05-18T01:29:31.002Z,59.25
2023-05-18T01:31:58.704Z,59.55
2023-05-18T01:34:26.325Z,63.47
2023-05-18T01:36:53.903Z,57.85
2023-05-18T01:39:21.642Z,48.63
2023-05-18T01:42:14.352Z,42.63
2023-05-18T01:44:58.917Z,34.83
2023-05-18T01:47:30.496Z,43.70
2023-05-18T01:50:14.509Z,37.13
2023-05-18T01:53:26.675Z,42.10
2023-05-18T01:55:55.801Z,39.30
2023-05-18T01:58:23.865Z,44.88
2023-05-18T02:00:51.947Z,46.83
2023-05-18T02:03:19.344Z,42.50
2023-05-18T02:05:46.711Z,48.15
2023-05-18T02:08:14.255Z,44.83
2023-05-18T02:10:41.556Z,50.65
2023-05-18T02:13:08.757Z,48.67
2023-05-18T02:15:36.208Z,54.75
2023-05-18T02:18:03.569Z,54.13
2023-05-18T02:20:33.640Z,34.70
2023-05-18T02:23:01.043Z,30.00
2023-05-18T02:25:28.311Z,27.40
2023-05-18T02:27:55.858Z,30.63
2023-05-18T02:30:23.058Z,32.88
2023-05-18T02:35:18.619Z,42.20
2023-05-18T02:37:47.246Z,35.80
2023-05-18T02:40:15.917Z,50.90
2023-05-18T02:42:43.368Z,60.85
2023-05-18T02:45:11.509Z,46.38
2023-05-18T02:47:40.100Z,46.08
2023-05-18T02:50:08.225Z,48.35
2023-05-18T02:55:03.736Z,46.72
2023-05-18T02:57:56.810Z,40.22
2023-05-18T03:00:31.781Z,49.40
2023-05-18T03:03:00.487Z,52.22
2023-05-18T03:05:28.305Z,60.00
2023-05-18T03:07:55.630Z,61.17
2023-05-18T03:10:23.158Z,57.83
2023-05-18T03:12:50.929Z,47.10
2023-05-18T03:15:18.165Z,49.78
2023-05-18T03:17:45.645Z,54.35
2023-05-18T03:20:15.405Z,54.28
2023-05-18T03:22:42.994Z,51.22
2023-05-18T03:25:10.184Z,51.95
2023-05-18T03:27:37.955Z,55.80
2023-05-18T03:30:06.320Z,43.78
2023-05-18T03:32:34.012Z,42.40
2023-05-18T03:35:01.899Z,39.10
2023-05-18T03:37:29.600Z,38.63
2023-05-18T03:40:12.642Z,40.25
2023-05-18T03:42:41.917Z,39.60
2023-05-18T03:45:11.494Z,37.60
2023-05-18T03:47:40.591Z,37.33
2023-05-18T03:50:08.904Z,43.67
2023-05-18T03:52:37.035Z,37.30
2023-05-18T03:55:07.040Z,38.58
2023-05-18T03:57:34.253Z,36.65
2023-05-18T04:00:07.784Z,37.95
2023-05-18T04:02:44.640Z,39.53
2023-05-18T04:05:14.417Z,39.85
2023-05-18T04:07:46.490Z,40.28
2023-05-18T04:10:14.472Z,38.33
2023-05-18T04:12:43.170Z,38.55
2023-05-18T04:15:14.388Z,37.47
2023-05-18T04:17:45.671Z,54.47
2023-05-18T04:20:14.703Z,38.92
2023-05-18T04:22:48.352Z,40.13
2023-05-18T04:25:16.322Z,39.42
2023-05-18T04:27:48.997Z,54.25
2023-05-18T04:30:18.733Z,38.88
2023-05-18T04:32:46.114Z,39.92
2023-05-18T04:35:13.455Z,40.30
2023-05-18T04:37:41.052Z,38.42
2023-05-18T04:40:13.843Z,38.50
2023-05-18T04:42:48.516Z,38.65
2023-05-18T04:45:27.116Z,36.10
2023-05-18T04:47:58.586Z,39.00
2023-05-18T04:50:25.999Z,38.50
2023-05-18T04:52:53.922Z,40.00
2023-05-18T04:55:25.850Z,38.47
2023-05-18T04:57:56.629Z,33.25
2023-05-18T05:00:26.931Z,35.53
2023-05-18T05:02:56.187Z,33.33
2023-05-18T05:05:25.390Z,37.05
2023-05-18T05:07:54.104Z,37.30
2023-05-18T05:10:21.951Z,34.55
2023-05-18T05:12:51.381Z,32.65
2023-05-18T05:15:20.429Z,35.88
2023-05-18T05:17:50.188Z,29.70
2023-05-18T05:22:45.710Z,31.77
2023-05-18T05:25:16.241Z,34.10
2023-05-18T05:27:43.493Z,28.90
2023-05-18T05:30:11.355Z,25.65
2023-05-18T05:32:39.802Z,38.30
2023-05-18T05:35:07.930Z,29.00
2023-05-18T05:37:36.564Z,31.15
2023-05-18T05:40:09.602Z,31.20
2023-05-18T05:42:42.300Z,39.17
2023-05-18T05:45:10.181Z,24.75
2023-05-18T05:47:50.185Z,25.55
2023-05-18T05:50:19.407Z,26.70
2023-05-18T05:52:48.744Z,25.85
2023-05-18T05:55:16.857Z,24.63
2023-05-18T05:57:44.089Z,25.27
2023-05-18T06:00:13.197Z,24.67
2023-05-18T06:02:51.739Z,25.10
2023-05-18T06:05:26.129Z,23.08
2023-05-18T06:07:55.389Z,26.52
2023-05-18T06:10:22.730Z,27.00
2023-05-18T06:12:50.522Z,31.30
2023-05-18T06:15:19.176Z,26.17
2023-05-18T06:17:47.122Z,30.70
2023-05-18T06:20:14.567Z,32.05
2023-05-18T06:22:41.938Z,29.27
2023-05-18T06:25:22.283Z,35.47
2023-05-18T06:28:02.429Z,36.92
2023-05-18T06:30:43.067Z,28.02
2023-05-18T06:33:16.718Z,32.83
2023-05-18T06:35:44.059Z,29.00
2023-05-18T06:38:11.494Z,30.23
2023-05-18T06:40:38.912Z,27.70
2023-05-18T06:43:06.238Z,29.40
2023-05-18T06:45:43.785Z,30.35
2023-05-18T06:48:16.359Z,29.98
2023-05-18T06:50:43.819Z,29.85
2023-05-18T06:53:12.903Z,34.28
2023-05-18T06:55:40.301Z,30.33
2023-05-18T06:58:07.546Z,29.15
2023-05-18T07:00:35.025Z,27.42
2023-05-18T07:03:03.737Z,28.45
2023-05-18T07:05:31.820Z,26.30
2023-05-18T07:07:59.341Z,24.98
2023-05-18T07:10:28.822Z,24.50
2023-05-18T07:12:56.509Z,27.35
2023-05-18T07:15:25.914Z,24.40
2023-05-18T07:17:53.294Z,21.92
2023-05-18T07:20:20.725Z,32.00
2023-05-18T07:22:47.928Z,39.50
2023-05-18T07:25:15.145Z,30.13
2023-05-18T07:27:42.378Z,21.27
2023-05-18T07:30:10.413Z,27.05
2023-05-18T07:32:38.014Z,25.83
2023-05-18T07:35:05.962Z,21.45
2023-05-18T07:37:33.146Z,25.95
2023-05-18T07:40:00.606Z,22.42
2023-05-18T07:42:28.089Z,24.48
2023-05-18T07:44:55.401Z,21.05
2023-05-18T07:47:23.300Z,24.90
2023-05-18T07:49:50.668Z,22.05
2023-05-18T07:52:17.882Z,26.00
2023-05-18T07:54:45.199Z,22.48
2023-05-18T07:57:12.959Z,23.20
2023-05-18T07:59:40.366Z,21.63
2023-05-18T08:02:07.667Z,19.52
2023-05-18T08:04:35.050Z,25.15
2023-05-18T08:07:03.225Z,21.75
2023-05-18T08:09:31.191Z,22.10
2023-05-18T08:11:58.631Z,22.45
2023-05-18T08:14:26.107Z,20.65
2023-05-18T08:16:53.352Z,19.75
2023-05-18T08:19:20.598Z,18.13
2023-05-18T08:21:47.853Z,23.52
2023-05-18T08:24:15.105Z,20.33
2023-05-18T08:26:42.307Z,24.27
2023-05-18T08:29:10.282Z,19.98
2023-05-18T08:31:39.917Z,20.77
2023-05-18T08:34:08.252Z,15.75
2023-05-18T08:36:36.766Z,18.55
2023-05-18T08:39:05.510Z,16.58
2023-05-18T08:41:41.348Z,19.90
2023-05-18T08:44:30.695Z,18.67
2023-05-18T08:46:58.766Z,22.02
2023-05-18T08:49:28.628Z,18.42
2023-05-18T08:52:00.205Z,17.70
2023-05-18T08:54:27.817Z,20.30
2023-05-18T08:56:55.990Z,18.70
2023-05-18T08:59:31.921Z,16.73
2023-05-18T09:01:59.657Z,28.40
2023-05-18T09:04:27.868Z,19.65
2023-05-18T09:09:25.568Z,19.35
2023-05-18T09:11:53.067Z,17.38
2023-05-18T09:14:25.621Z,23.55
2023-05-18T09:16:53.719Z,20.60
2023-05-18T09:19:21.336Z,20.23
2023-05-18T09:21:48.637Z,20.52
2023-05-18T09:24:15.978Z,21.52
2023-05-18T09:26:43.261Z,19.35
2023-05-18T09:29:23.954Z,18.65
2023-05-18T09:31:51.998Z,19.77
2023-05-18T09:34:19.413Z,23.52
2023-05-18T09:36:52.986Z,28.65
2023-05-18T09:39:20.441Z,16.50
2023-05-18T09:41:55.131Z,18.67
2023-05-18T09:44:34.167Z,20.73
2023-05-18T09:47:02.680Z,17.80
2023-05-18T09:49:31.077Z,16.60
2023-05-18T09:54:27.704Z,17.52
2023-05-18T09:57:09.406Z,18.40
2023-05-18T09:59:37.969Z,18.50
2023-05-18T10:02:08.373Z,19.77
2023-05-18T10:04:41.635Z,19.52
2023-05-18T10:07:17.188Z,31.83
2023-05-18T10:09:46.192Z,16.88
2023-05-18T10:12:19.809Z,18.52
2023-05-18T10:14:49.241Z,20.65
2023-05-18T10:17:17.631Z,17.63
2023-05-18T10:19:46.908Z,17.98
2023-05-18T10:22:20.896Z,15.77
2023-05-18T10:24:52.777Z,16.70
2023-05-18T10:27:28.348Z,20.48
2023-05-18T10:29:58.949Z,15.63
2023-05-18T10:32:28.411Z,15.85
2023-05-18T10:34:57.287Z,15.65
2023-05-18T10:37:26.577Z,17.30
2023-05-18T10:39:56.007Z,23.60
2023-05-18T10:42:25.942Z,21.50
2023-05-18T10:44:58.290Z,17.17
2023-05-18T10:47:27.623Z,23.00
2023-05-18T10:49:55.667Z,30.45
2023-05-18T10:52:26.480Z,19.90
2023-05-18T10:54:54.423Z,18.70
2023-05-18T10:57:22.062Z,16.15
2023-05-18T10:59:50.070Z,15.52
2023-05-18T11:02:19.669Z,23.35
2023-05-18T11:04:48.003Z,13.50
2023-05-18T11:07:15.996Z,21.25
2023-05-18T11:09:44.683Z,16.90
2023-05-18T11:12:20.161Z,20.13
2023-05-18T11:14:57.755Z,22.45
2023-05-18T11:17:29.424Z,26.35
2023-05-18T11:20:05.905Z,16.27
2023-05-18T11:22:58.316Z,17.77
2023-05-18T11:25:28.122Z,20.50
2023-05-18T11:28:10.138Z,16.98
2023-05-18T11:30:37.258Z,20.10
2023-05-18T11:33:28.261Z,21.00
2023-05-18T11:36:14.533Z,15.38
2023-05-18T11:39:11.612Z,18.00
2023-05-18T11:41:44.516Z,18.70
2023-05-18T11:44:21.867Z,15.52
2023-05-18T11:46:58.957Z,15.15
2023-05-18T11:49:47.582Z,16.02
2023-05-18T11:52:22.293Z,14.45
2023-05-18T11:54:55.568Z,16.10
2023-05-18T11:57:40.570Z,16.75
2023-05-18T12:00:13.639Z,18.65
2023-05-18T12:02:48.570Z,19.20
2023-05-18T12:05:16.360Z,19.10
2023-05-18T12:07:44.991Z,16.42
2023-05-18T12:10:17.928Z,16.98
2023-05-18T12:12:51.886Z,15.30
2023-05-18T12:15:23.911Z,27.48
2023-05-18T12:17:51.978Z,18.20
2023-05-18T12:22:56.235Z,15.27
2023-05-18T12:25:28.000Z,19.13
2023-05-18T12:27:57.099Z,15.70
2023-05-18T12:30:34.814Z,17.23
2023-05-18T12:33:03.602Z,15.98
2023-05-18T12:35:32.953Z,14.60
2023-05-18T12:38:01.356Z,14.77
2023-05-18T12:43:11.452Z,17.25
2023-05-18T12:45:38.860Z,28.38
2023-05-18T12:48:06.752Z,20.02
2023-05-18T12:53:02.187Z,17.50
2023-05-18T12:55:31.194Z,25.85
2023-05-18T12:58:19.762Z,20.48
2023-05-18T13:00:48.991Z,21.70
2023-05-18T13:03:22.001Z,29.60
2023-05-18T13:06:08.267Z,37.67
2023-05-18T13:08:37.078Z,29.90
2023-05-18T13:11:14.358Z,20.52
2023-05-18T13:14:05.730Z,17.63
2023-05-18T13:16:44.890Z,16.33
2023-05-18T13:19:18.994Z,22.70
2023-05-18T13:21:57.735Z,14.50
2023-05-18T13:24:24.945Z,14.95
2023-05-18T13:26:52.110Z,14.07
2023-05-18T13:29:19.387Z,15.32
2023-05-18T13:31:46.631Z,14.68
2023-05-18T13:34:13.865Z,17.30
2023-05-18T13:36:41.444Z,17.23
2023-05-18T13:39:09.669Z,18.30
2023-05-18T13:41:37.132Z,17.08
2023-05-18T13:44:04.560Z,29.35
2023-05-18T13:46:32.038Z,41.15
2023-05-18T13:48:59.219Z,29.80
2023-05-18T13:51:26.315Z,37.00
2023-05-18T13:53:53.729Z,29.80
2023-05-18T13:56:21.218Z,34.58
2023-05-18T13:58:50.074Z,21.63
2023-05-18T14:01:17.864Z,25.50
2023-05-18T14:03:45.483Z,30.83
2023-05-18T14:06:12.671Z,29.27
2023-05-18T14:08:39.839Z,40.33
2023-05-18T14:11:06.979Z,53.42
2023-05-18T14:13:34.146Z,50.38
2023-05-18T14:16:01.620Z,51.72
2023-05-18T14:18:28.815Z,31.80
2023-05-18T14:20:58.605Z,25.98
2023-05-18T14:23:25.992Z,19.10
2023-05-18T14:25:53.165Z,19.77
2023-05-18T14:28:20.325Z,17.83
2023-05-18T14:30:47.606Z,16.60
2023-05-18T14:33:14.875Z,15.88
2023-05-18T14:35:42.070Z,17.42
2023-05-18T14:38:09.246Z,15.85
2023-05-18T14:40:36.576Z,16.45
2023-05-18T14:43:03.693Z,17.45
2023-05-18T14:45:31.292Z,16.83
2023-05-18T14:47:58.484Z,17.70
2023-05-18T14:50:25.749Z,16.15
2023-05-18T14:52:54.777Z,29.38
2023-05-18T14:55:21.970Z,15.50
2023-05-18T14:57:49.128Z,17.30
2023-05-18T15:00:16.725Z,17.30
2023-05-18T15:02:44.000Z,15.65
2023-05-18T15:05:11.739Z,17.15
2023-05-18T15:07:39.031Z,18.52
2023-05-18T15:10:07.506Z,17.35
2023-05-18T15:12:34.661Z,20.13
2023-05-18T15:15:02.041Z,17.25
2023-05-18T15:17:29.232Z,16.10
2023-05-18T15:19:56.440Z,17.33
2023-05-18T15:22:23.633Z,15.88
2023-05-18T15:24:51.012Z,20.52
2023-05-18T15:27:18.359Z,18.33
2023-05-18T15:29:46.642Z,13.63
2023-05-18T15:32:13.824Z,13.63
2023-05-18T15:34:41.326Z,17.58
2023-05-18T15:37:08.444Z,15.20
2023-05-18T15:39:38.286Z,14.75
2023-05-18T15:42:06.225Z,19.00
2023-05-18T15:44:33.360Z,15.43
2023-05-18T15:47:01.832Z,19.95
2023-05-18T15:49:29.473Z,17.10
2023-05-18T15:51:56.811Z,16.52
2023-05-18T15:54:23.945Z,20.20
2023-05-18T15:56:51.216Z,15.80
2023-05-18T15:59:18.400Z,17.15
2023-05-18T16:01:45.944Z,18.25
2023-05-18T16:04:13.256Z,14.63
2023-05-18T16:06:40.574Z,17.65
2023-05-18T16:09:07.770Z,16.48
2023-05-18T16:11:36.036Z,23.67
2023-05-18T16:14:04.556Z,15.40
2023-05-18T16:16:31.854Z,13.65
2023-05-18T16:19:00.670Z,27.83
2023-05-18T16:21:27.959Z,16.40
2023-05-18T16:23:56.316Z,15.80
2023-05-18T16:26:24.465Z,14.02
2023-05-18T16:31:18.890Z,17.75
2023-05-18T16:33:46.035Z,19.15
2023-05-18T16:36:13.366Z,14.02
2023-05-18T16:38:41.096Z,16.65
2023-05-18T16:41:08.295Z,15.20
2023-05-18T16:43:35.798Z,15.25
2023-05-18T16:46:02.994Z,16.35
2023-05-18T16:48:30.190Z,17.65
2023-05-18T16:50:57.522Z,19.67
2023-05-18T16:53:24.690Z,15.32
2023-05-18T16:55:51.981Z,15.90
2023-05-18T16:58:19.905Z,14.98
2023-05-18T17:00:47.030Z,17.70
2023-05-18T17:03:17.168Z,27.02
2023-05-18T17:05:44.531Z,17.50
2023-05-18T17:08:12.517Z,18.30
2023-05-18T17:10:40.868Z,16.27
2023-05-18T17:13:08.535Z,17.00
2023-05-18T17:15:35.993Z,19.02
2023-05-18T17:18:03.188Z,19.63
2023-05-18T17:20:30.528Z,19.70
2023-05-18T17:22:59.878Z,20.52
2023-05-18T17:25:28.411Z,17.02
2023-05-18T17:27:55.566Z,19.80
2023-05-18T17:30:22.700Z,25.70
2023-05-18T17:32:50.960Z,14.80
2023-05-18T17:35:18.347Z,17.20
2023-05-18T17:37:46.479Z,16.77
2023-05-18T17:42:41.007Z,18.77
2023-05-18T17:45:09.842Z,21.77
2023-05-18T17:47:38.347Z,19.20
2023-05-18T17:50:06.624Z,14.30
2023-05-18T17:52:33.900Z,20.52
2023-05-18T17:55:01.466Z,16.70
2023-05-18T17:57:30.070Z,18.45
2023-05-18T17:59:57.390Z,17.80
2023-05-18T18:02:24.620Z,20.27
2023-05-18T18:04:51.874Z,19.90
2023-05-18T18:07:19.048Z,18.52
2023-05-18T18:09:46.344Z,22.00
2023-05-18T18:12:13.561Z,18.48
2023-05-18T18:14:40.763Z,15.73
2023-05-18T18:17:08.252Z,17.45
2023-05-18T18:19:35.571Z,18.30
2023-05-18T18:22:03.052Z,17.23
2023-05-18T18:24:30.344Z,17.95
2023-05-18T18:26:57.564Z,15.82
2023-05-18T18:29:25.998Z,19.63
2023-05-18T18:31:53.264Z,16.30
2023-05-18T18:34:20.505Z,18.15
2023-05-18T18:36:48.576Z,19.02
2023-05-18T18:39:15.897Z,17.20
2023-05-18T18:41:43.068Z,19.15
2023-05-18T18:44:10.386Z,19.13
2023-05-18T18:46:37.702Z,18.00
2023-05-18T18:49:05.157Z,20.13
2023-05-18T18:51:32.685Z,18.67
2023-05-18T18:54:00.262Z,16.45
2023-05-18T18:56:27.602Z,17.55
2023-05-18T18:58:54.803Z,18.48
2023-05-18T19:01:22.140Z,23.20
2023-05-18T19:03:49.508Z,17.88
2023-05-18T19:06:17.378Z,17.13
2023-05-18T19:08:44.639Z,15.98
2023-05-18T19:11:11.954Z,14.55
2023-05-18T19:13:39.159Z,19.23
2023-05-18T19:16:06.714Z,20.08
2023-05-18T19:18:33.969Z,20.73
2023-05-18T19:21:01.420Z,18.67
2023-05-18T19:23:28.801Z,20.27
2023-05-18T19:25:56.329Z,18.42
2023-05-18T19:28:23.529Z,18.50
2023-05-18T19:30:50.756Z,20.48
2023-05-18T19:33:18.379Z,15.82
2023-05-18T19:35:45.682Z,18.75
2023-05-18T19:38:12.891Z,19.00
2023-05-18T19:40:40.065Z,19.90
2023-05-18T19:43:07.539Z,15.05
2023-05-18T19:45:35.163Z,23.58
2023-05-18T19:48:02.917Z,14.20
2023-05-18T19:50:33.529Z,20.77
2023-05-18T19:53:05.544Z,19.13
2023-05-18T19:55:33.926Z,17.08
2023-05-18T19:58:09.793Z,18.52
2023-05-18T20:00:38.020Z,15.75
2023-05-18T20:03:05.806Z,20.73
2023-05-18T20:05:33.408Z,17.92
2023-05-18T20:08:02.970Z,16.33
2023-05-18T20:10:33.480Z,16.83
2023-05-18T20:13:01.453Z,17.10
2023-05-18T20:15:30.595Z,16.65
2023-05-18T20:17:58.247Z,24.90
2023-05-18T20:20:30.449Z,19.45
2023-05-18T20:22:58.125Z,20.08
2023-05-18T20:25:26.597Z,19.75
2023-05-18T20:27:56.751Z,21.17
2023-05-18T20:30:23.920Z,18.30
2023-05-18T20:32:51.225Z,14.30
2023-05-18T20:35:19.447Z,16.77
2023-05-18T20:37:46.934Z,14.93
2023-05-18T20:40:14.259Z,18.40
2023-05-18T20:42:41.618Z,18.98
2023-05-18T20:45:10.063Z,16.60
2023-05-18T20:47:37.407Z,14.73
2023-05-18T20:50:05.347Z,19.30
2023-05-18T20:52:32.787Z,20.08
2023-05-18T20:55:00.108Z,24.00
2023-05-18T20:57:30.907Z,19.83
2023-05-18T20:59:58.146Z,18.85
2023-05-18T21:02:26.645Z,16.25
2023-05-18T21:04:57.755Z,17.80
2023-05-18T21:07:25.237Z,18.88
2023-05-18T21:09:52.486Z,18.67
2023-05-18T21:12:19.740Z,20.65
2023-05-18T21:14:46.968Z,16.88
2023-05-18T21:17:15.548Z,20.80
2023-05-18T21:19:42.779Z,20.77
2023-05-18T21:22:11.075Z,19.85
2023-05-18T21:27:06.225Z,21.50
2023-05-18T21:29:33.442Z,16.55
2023-05-18T21:32:00.813Z,18.85
2023-05-18T21:34:28.537Z,18.17
2023-05-18T21:36:58.978Z,19.50
2023-05-18T21:39:26.193Z,21.20
2023-05-18T21:41:53.422Z,20.40
2023-05-18T21:44:20.886Z,20.38
2023-05-18T21:46:48.142Z,23.25
2023-05-18T21:49:15.491Z,22.20
2023-05-18T21:51:42.677Z,20.42
2023-05-18T21:54:10.079Z,18.52
2023-05-18T21:56:37.356Z,21.55
2023-05-18T21:59:04.648Z,21.60
2023-05-18T22:01:31.946Z,20.23
2023-05-18T22:03:59.161Z,23.73
2023-05-18T22:06:26.485Z,24.02
2023-05-18T22:08:53.677Z,22.77
2023-05-18T22:11:21.832Z,21.55
2023-05-18T22:13:48.997Z,21.55
2023-05-18T22:16:16.263Z,16.15
2023-05-18T22:18:43.538Z,22.88
2023-05-18T22:21:10.787Z,17.02
2023-05-18T22:23:39.133Z,17.85
2023-05-18T22:26:07.065Z,18.55
2023-05-18T22:28:34.437Z,23.50
2023-05-18T22:31:01.633Z,21.67
2023-05-18T22:33:28.876Z,22.73
2023-05-18T22:35:56.516Z,24.48
2023-05-18T22:38:23.735Z,23.88
2023-05-18T22:40:53.945Z,22.98
2023-05-18T22:43:22.146Z,23.20
2023-05-18T22:45:49.807Z,22.45
2023-05-18T22:48:17.134Z,20.55
2023-05-18T22:50:45.155Z,18.98
2023-05-18T22:53:12.466Z,19.70
2023-05-18T22:55:39.699Z,19.63
2023-05-18T22:58:06.882Z,21.05
2023-05-18T23:00:34.255Z,18.83
2023-05-18T23:03:01.547Z,16.77
2023-05-18T23:05:28.930Z,23.55
2023-05-18T23:07:58.059Z,20.63
2023-05-18T23:10:26.429Z,18.83
2023-05-18T23:12:55.586Z,23.13
2023-05-18T23:15:23.335Z,23.63
2023-05-18T23:17:54.618Z,22.40
2023-05-18T23:20:25.439Z,23.13
2023-05-18T23:22:52.652Z,25.13
2023-05-18T23:25:19.963Z,25.30
2023-05-18T23:27:47.169Z,20.77
2023-05-18T23:30:14.387Z,29.92
2023-05-18T23:32:42.194Z,27.70
2023-05-18T23:35:13.226Z,22.48
2023-05-18T23:37:42.542Z,25.63
2023-05-18T23:40:12.455Z,18.95
2023-05-18T23:42:40.115Z,21.27
2023-05-18T23:45:10.859Z,20.85
2023-05-18T23:47:38.458Z,23.75
2023-05-18T23:50:07.181Z,21.80
2023-05-18T23:52:35.575Z,31.55
2023-05-18T23:55:05.230Z,22.67
2023-05-18T23:57:33.092Z,21.90
